createdAt,value
2018-09-30T00:00:32.055Z,88.30
2018-09-30T00:03:00.767Z,87.90
2018-09-30T00:05:35.636Z,87.70
2018-09-30T00:08:04.038Z,87.30
2018-09-30T00:10:32.563Z,87.50
2018-09-30T00:13:01.098Z,87.90
2018-09-30T00:15:29.577Z,88.60
2018-09-30T00:18:00.852Z,88.90
2018-09-30T00:20:29.274Z,89.30
2018-09-30T00:22:58.925Z,90.20
2018-09-30T00:25:32.765Z,90.40
2018-09-30T00:28:01.449Z,91.00
2018-09-30T00:30:30.822Z,91.10
2018-09-30T00:32:59.223Z,91.20
2018-09-30T00:35:27.737Z,91.90
2018-09-30T00:37:56.148Z,92.40
2018-09-30T00:40:24.557Z,92.60
2018-09-30T00:42:52.971Z,91.60
2018-09-30T00:45:21.963Z,91.50
2018-09-30T00:47:50.379Z,91.80
2018-09-30T00:50:18.788Z,91.70
2018-09-30T00:52:47.230Z,91.60
2018-09-30T00:55:15.664Z,91.80
2018-09-30T00:57:44.146Z,91.90
2018-09-30T01:00:13.471Z,91.90
2018-09-30T01:02:41.873Z,91.80
2018-09-30T01:05:10.299Z,91.50
2018-09-30T01:07:38.661Z,91.30
2018-09-30T01:10:07.207Z,91.80
2018-09-30T01:12:35.596Z,91.30
2018-09-30T01:15:04.140Z,90.90
2018-09-30T01:17:32.595Z,91.70
2018-09-30T01:20:01.077Z,91.80
2018-09-30T01:22:29.530Z,91.30
2018-09-30T01:24:57.935Z,90.90
2018-09-30T01:27:26.303Z,90.50
2018-09-30T01:29:54.782Z,90.80
2018-09-30T01:32:23.170Z,90.70
2018-09-30T01:34:52.452Z,90.60
2018-09-30T01:37:20.906Z,91.00
2018-09-30T01:39:49.312Z,90.80
2018-09-30T01:42:18.289Z,90.30
2018-09-30T01:44:46.681Z,90.10
2018-09-30T01:47:15.960Z,89.80
2018-09-30T01:49:44.412Z,89.30
2018-09-30T01:52:24.733Z,89.00
2018-09-30T01:54:53.251Z,88.90
2018-09-30T01:57:21.635Z,88.60
2018-09-30T01:59:50.048Z,89.40
2018-09-30T02:02:18.497Z,89.20
2018-09-30T02:04:46.873Z,89.20
2018-09-30T02:07:15.277Z,89.70
2018-09-30T02:09:43.709Z,89.90
2018-09-30T02:12:12.140Z,90.00
2018-09-30T02:14:40.564Z,90.90
2018-09-30T02:17:09.048Z,91.50
2018-09-30T02:19:38.462Z,92.10
2018-09-30T02:22:07.580Z,92.30
2018-09-30T02:24:37.072Z,92.80
2018-09-30T02:27:05.550Z,92.90
2018-09-30T02:29:33.900Z,93.30
2018-09-30T02:32:02.284Z,93.80
2018-09-30T02:34:30.665Z,93.90
2018-09-30T02:36:59.043Z,93.50
2018-09-30T02:44:28.548Z,94.40
2018-09-30T02:46:56.922Z,94.40
2018-09-30T02:49:25.546Z,94.50
2018-09-30T02:51:55.008Z,94.20
2018-09-30T02:54:23.413Z,93.80
2018-09-30T02:56:51.901Z,93.60
2018-09-30T02:59:20.528Z,94.10
2018-09-30T03:01:49.136Z,93.60
2018-09-30T03:04:17.656Z,93.70
2018-09-30T03:06:52.088Z,93.60
2018-09-30T03:09:20.636Z,93.10
2018-09-30T03:11:49.014Z,93.10
2018-09-30T03:14:17.670Z,92.90
2018-09-30T03:16:46.736Z,92.60
2018-09-30T03:19:15.568Z,92.70
2018-09-30T03:21:44.048Z,92.90
2018-09-30T03:24:12.876Z,93.20
2018-09-30T03:26:41.801Z,93.10
2018-09-30T03:29:10.240Z,92.70
2018-09-30T03:31:39.457Z,92.80
2018-09-30T03:34:08.144Z,92.90
2018-09-30T03:36:36.524Z,92.60
2018-09-30T03:39:07.562Z,93.30
2018-09-30T03:41:35.988Z,93.20
2018-09-30T03:44:04.382Z,94.00
2018-09-30T03:46:32.815Z,93.90
2018-09-30T03:49:01.236Z,94.30
2018-09-30T03:51:30.695Z,94.50
2018-09-30T03:53:59.155Z,94.50
2018-09-30T03:56:28.557Z,94.10
2018-09-30T03:58:56.954Z,94.30
2018-09-30T04:01:25.399Z,94.50
2018-09-30T04:03:53.773Z,94.90
2018-09-30T04:06:22.178Z,94.30
2018-09-30T04:08:50.561Z,94.50
2018-09-30T04:11:19.839Z,94.70
2018-09-30T04:13:48.293Z,94.90
2018-09-30T04:16:16.699Z,95.10
2018-09-30T04:18:45.645Z,95.20
2018-09-30T04:21:14.070Z,95.20
2018-09-30T04:23:42.558Z,95.60
2018-09-30T04:26:10.941Z,95.90
2018-09-30T04:28:39.437Z,95.60
2018-09-30T04:31:07.810Z,95.50
2018-09-30T04:33:36.229Z,95.90
2018-09-30T04:36:04.667Z,96.30
2018-09-30T04:38:33.092Z,96.20
2018-09-30T04:41:01.928Z,96.10
2018-09-30T04:43:30.297Z,95.50
2018-09-30T04:45:59.224Z,95.90
2018-09-30T04:48:27.844Z,96.00
2018-09-30T04:50:56.225Z,96.00
2018-09-30T04:53:24.827Z,95.80
2018-09-30T04:58:22.263Z,97.00
2018-09-30T05:00:50.617Z,97.80
2018-09-30T05:03:18.991Z,98.00
2018-09-30T05:05:47.518Z,98.20
2018-09-30T05:08:15.891Z,98.20
2018-09-30T05:10:44.248Z,98.00
2018-09-30T05:13:12.664Z,97.90
2018-09-30T05:15:41.351Z,97.80
2018-09-30T05:18:09.782Z,97.30
2018-09-30T05:20:38.163Z,97.30
2018-09-30T05:23:06.737Z,96.90
2018-09-30T05:25:41.007Z,96.40
2018-09-30T05:28:09.735Z,96.40
2018-09-30T05:30:38.331Z,96.20
2018-09-30T05:33:06.756Z,95.90
2018-09-30T05:35:35.718Z,95.60
2018-09-30T05:38:04.169Z,95.50
2018-09-30T05:40:32.848Z,95.50
2018-09-30T05:43:02.007Z,95.50
2018-09-30T05:45:30.380Z,95.40
2018-09-30T05:47:59.013Z,95.20
2018-09-30T05:50:27.563Z,95.20
2018-09-30T05:52:56.571Z,94.90
2018-09-30T05:55:25.040Z,94.90
2018-09-30T05:57:53.557Z,95.40
2018-09-30T06:00:22.948Z,96.00
2018-09-30T06:02:53.343Z,95.00
2018-09-30T06:05:22.054Z,94.90
2018-09-30T06:07:50.685Z,94.90
2018-09-30T06:10:19.646Z,95.50
2018-09-30T06:12:48.139Z,95.60
2018-09-30T06:15:16.585Z,95.80
2018-09-30T06:17:45.078Z,95.90
2018-09-30T06:20:13.644Z,96.00
2018-09-30T06:22:42.069Z,95.60
2018-09-30T06:25:10.523Z,95.10
2018-09-30T06:27:39.011Z,94.90
2018-09-30T06:30:08.596Z,94.90
2018-09-30T06:32:43.611Z,95.00
2018-09-30T06:35:12.162Z,94.30
2018-09-30T06:37:40.684Z,94.30
2018-09-30T06:40:09.395Z,93.60
2018-09-30T06:42:38.381Z,93.50
2018-09-30T06:45:07.007Z,94.70
2018-09-30T06:47:35.621Z,94.50
2018-09-30T06:50:04.252Z,92.90
2018-09-30T06:52:32.721Z,91.80
2018-09-30T06:55:02.615Z,91.40
2018-09-30T06:57:31.046Z,91.30
2018-09-30T06:59:59.718Z,91.40
2018-09-30T07:02:29.114Z,90.70
2018-09-30T07:04:57.735Z,90.90
2018-09-30T07:07:26.179Z,90.00
2018-09-30T07:09:54.704Z,90.30
2018-09-30T07:12:23.330Z,90.50
2018-09-30T07:14:51.866Z,89.80
2018-09-30T07:17:23.443Z,89.80
2018-09-30T07:19:52.349Z,90.70
2018-09-30T07:22:23.222Z,91.10
2018-09-30T07:24:58.868Z,91.10
2018-09-30T07:27:27.993Z,90.80
2018-09-30T07:29:58.343Z,90.80
2018-09-30T07:32:27.678Z,90.90
2018-09-30T07:34:56.226Z,91.20
2018-09-30T07:37:25.121Z,91.50
2018-09-30T07:39:53.719Z,91.50
2018-09-30T07:42:22.435Z,91.00
2018-09-30T07:44:51.043Z,90.40
2018-09-30T07:47:19.495Z,89.60
2018-09-30T07:49:48.550Z,90.10
2018-09-30T07:52:17.409Z,89.90
2018-09-30T07:54:45.961Z,89.80
2018-09-30T07:57:14.562Z,89.30
2018-09-30T07:59:43.009Z,88.50
2018-09-30T08:02:11.479Z,87.70
2018-09-30T08:04:40.144Z,87.10
2018-09-30T08:07:08.833Z,87.50
2018-09-30T08:09:37.937Z,86.50
2018-09-30T08:12:07.130Z,85.60
2018-09-30T08:14:41.473Z,85.20
2018-09-30T08:17:10.146Z,82.90
2018-09-30T08:19:38.860Z,82.20
2018-09-30T08:22:08.285Z,81.90
2018-09-30T08:24:36.920Z,81.20
2018-09-30T08:27:06.059Z,79.30
2018-09-30T08:29:34.504Z,77.70
2018-09-30T08:32:02.998Z,77.80
2018-09-30T08:34:31.448Z,77.00
2018-09-30T08:36:59.866Z,75.70
2018-09-30T08:39:28.339Z,76.30
2018-09-30T08:41:56.837Z,74.40
2018-09-30T08:44:25.206Z,75.40
2018-09-30T08:46:53.730Z,72.90
2018-09-30T08:49:22.268Z,72.80
2018-09-30T08:51:50.725Z,72.60
2018-09-30T08:54:19.188Z,73.00
2018-09-30T08:56:48.570Z,72.70
2018-09-30T08:59:16.944Z,72.30
2018-09-30T09:01:45.373Z,71.80
2018-09-30T09:04:13.937Z,71.70
2018-09-30T09:06:42.318Z,71.00
2018-09-30T09:09:12.624Z,70.90
2018-09-30T09:11:41.317Z,71.00
2018-09-30T09:14:09.784Z,70.20
2018-09-30T09:16:38.511Z,69.20
2018-09-30T09:19:06.981Z,69.00
2018-09-30T09:21:35.430Z,68.80
2018-09-30T09:24:04.804Z,67.50
2018-09-30T09:26:33.297Z,67.70
2018-09-30T09:29:01.737Z,67.60
2018-09-30T09:34:04.869Z,67.00
2018-09-30T09:36:34.876Z,66.60
2018-09-30T09:39:06.389Z,66.60
2018-09-30T09:41:34.907Z,65.80
2018-09-30T09:44:03.356Z,65.00
2018-09-30T09:46:31.864Z,65.10
2018-09-30T09:49:00.371Z,62.90
2018-09-30T09:51:28.865Z,64.30
2018-09-30T09:54:04.398Z,64.70
2018-09-30T09:56:34.509Z,62.80
2018-09-30T09:59:04.649Z,62.50
2018-09-30T10:01:33.163Z,62.10
2018-09-30T10:04:04.673Z,61.90
2018-09-30T10:06:35.518Z,62.20
2018-09-30T10:09:12.519Z,61.50
2018-09-30T10:11:41.643Z,60.30
2018-09-30T10:14:11.777Z,61.50
2018-09-30T10:16:43.354Z,59.50
2018-09-30T10:19:12.503Z,59.10
2018-09-30T10:21:42.732Z,58.40
2018-09-30T10:24:11.610Z,56.30
2018-09-30T10:26:42.847Z,57.70
2018-09-30T10:29:11.615Z,56.40
2018-09-30T10:31:40.289Z,56.40
2018-09-30T10:34:08.780Z,56.30
2018-09-30T10:36:37.254Z,56.50
2018-09-30T10:39:08.531Z,56.70
2018-09-30T10:41:36.872Z,57.10
2018-09-30T10:44:05.442Z,55.40
2018-09-30T10:46:37.048Z,55.50
2018-09-30T10:49:09.736Z,54.50
2018-09-30T10:51:38.361Z,54.30
2018-09-30T10:54:07.110Z,53.70
2018-09-30T10:56:37.870Z,53.50
2018-09-30T10:59:07.446Z,52.90
2018-09-30T11:01:38.549Z,53.10
2018-09-30T11:04:09.006Z,53.50
2018-09-30T11:06:37.649Z,52.70
2018-09-30T11:09:07.031Z,51.00
2018-09-30T11:11:35.487Z,50.30
2018-09-30T11:14:04.211Z,52.30
2018-09-30T11:16:32.673Z,51.50
2018-09-30T11:19:01.554Z,49.80
2018-09-30T11:21:29.992Z,42.70
2018-09-30T11:23:58.398Z,34.90
2018-09-30T11:26:26.876Z,33.50
2018-09-30T11:28:55.398Z,31.20
2018-09-30T11:31:23.878Z,29.00
2018-09-30T11:33:53.013Z,29.30
2018-09-30T11:41:21.413Z,26.80
2018-09-30T11:43:49.948Z,25.70
2018-09-30T11:46:18.500Z,26.10
2018-09-30T11:48:46.930Z,26.00
2018-09-30T11:51:15.377Z,28.10
2018-09-30T11:53:43.865Z,29.20
2018-09-30T11:56:12.403Z,31.70
2018-09-30T11:58:40.865Z,32.00
2018-09-30T12:01:09.310Z,33.40
2018-09-30T12:03:37.719Z,31.70
2018-09-30T12:06:06.172Z,31.60
2018-09-30T12:08:34.662Z,30.70
2018-09-30T12:11:03.160Z,29.70
2018-09-30T12:13:31.617Z,28.70
2018-09-30T12:16:00.089Z,29.30
2018-09-30T12:18:28.576Z,30.40
2018-09-30T12:20:57.008Z,29.20
2018-09-30T12:23:25.460Z,28.50
2018-09-30T12:25:53.964Z,26.90
2018-09-30T12:28:22.460Z,26.50
2018-09-30T12:30:50.969Z,24.60
2018-09-30T12:33:19.414Z,24.80
2018-09-30T12:35:47.878Z,24.10
2018-09-30T12:38:16.293Z,23.40
2018-09-30T12:40:44.726Z,24.00
2018-09-30T12:43:13.097Z,26.90
2018-09-30T12:45:41.481Z,29.40
2018-09-30T12:48:10.248Z,30.60
2018-09-30T12:50:39.081Z,31.40
2018-09-30T12:53:07.810Z,32.50
2018-09-30T12:55:36.292Z,35.00
2018-09-30T12:58:04.838Z,36.80
2018-09-30T13:00:33.571Z,38.30
2018-09-30T13:03:02.308Z,39.90
2018-09-30T13:05:30.776Z,41.20
2018-09-30T13:07:59.319Z,41.20
2018-09-30T13:10:27.803Z,41.60
2018-09-30T13:12:57.388Z,43.30
2018-09-30T13:15:25.973Z,44.80
2018-09-30T13:17:54.325Z,45.00
2018-09-30T13:20:23.009Z,46.00
2018-09-30T13:22:51.457Z,46.70
2018-09-30T13:25:19.906Z,46.70
2018-09-30T13:27:48.527Z,46.70
2018-09-30T13:30:17.309Z,46.90
2018-09-30T13:32:45.676Z,46.90
2018-09-30T13:35:14.208Z,46.80
2018-09-30T13:37:42.621Z,48.00
2018-09-30T13:40:11.247Z,47.30
2018-09-30T13:42:39.794Z,45.90
2018-09-30T13:45:08.855Z,46.20
2018-09-30T13:47:37.601Z,45.80
2018-09-30T13:50:06.146Z,44.10
2018-09-30T13:52:34.601Z,44.10
2018-09-30T13:55:03.066Z,43.00
2018-09-30T13:57:31.444Z,44.50
2018-09-30T13:59:59.921Z,45.40
2018-09-30T14:02:28.410Z,45.90
2018-09-30T14:04:56.801Z,45.50
2018-09-30T14:07:25.229Z,46.30
2018-09-30T14:09:53.582Z,46.10
2018-09-30T14:12:22.049Z,46.60
2018-09-30T14:14:50.479Z,46.50
2018-09-30T14:17:18.859Z,46.40
2018-09-30T14:19:47.246Z,48.00
2018-09-30T14:22:16.542Z,47.60
2018-09-30T14:24:44.920Z,48.60
2018-09-30T14:27:13.532Z,47.80
2018-09-30T14:29:41.782Z,48.00
2018-09-30T14:32:10.185Z,48.40
2018-09-30T14:34:38.747Z,48.30
2018-09-30T14:37:07.494Z,48.90
2018-09-30T14:39:36.471Z,47.60
2018-09-30T14:42:04.969Z,46.40
2018-09-30T14:44:33.364Z,45.70
2018-09-30T14:47:01.729Z,45.30
2018-09-30T14:49:30.164Z,46.50
2018-09-30T14:51:58.589Z,47.00
2018-09-30T14:54:27.065Z,48.10
2018-09-30T14:56:55.616Z,47.70
2018-09-30T14:59:24.002Z,47.30
2018-09-30T15:01:52.461Z,45.30
2018-09-30T15:04:20.888Z,42.50
2018-09-30T15:06:49.289Z,40.70
2018-09-30T15:09:17.703Z,40.70
2018-09-30T15:11:46.101Z,41.80
2018-09-30T15:14:14.525Z,41.90
2018-09-30T15:16:43.211Z,43.00
2018-09-30T15:19:13.781Z,43.60
2018-09-30T15:21:43.050Z,45.20
2018-09-30T15:24:11.927Z,45.30
2018-09-30T15:26:40.292Z,45.90
2018-09-30T15:29:09.666Z,47.20
2018-09-30T15:31:38.733Z,47.50
2018-09-30T15:34:07.550Z,47.10
2018-09-30T15:36:36.872Z,47.10
2018-09-30T15:39:08.363Z,48.00
2018-09-30T15:41:37.381Z,47.70
2018-09-30T15:44:05.797Z,47.50
2018-09-30T15:46:34.194Z,48.10
2018-09-30T15:49:02.634Z,50.50
2018-09-30T15:51:31.619Z,50.20
2018-09-30T15:54:00.053Z,50.00
2018-09-30T15:56:29.237Z,51.20
2018-09-30T15:58:58.460Z,51.00
2018-09-30T16:01:27.120Z,51.10
2018-09-30T16:03:55.656Z,50.40
2018-09-30T16:06:25.112Z,52.10
2018-09-30T16:08:53.544Z,51.30
2018-09-30T16:11:21.967Z,51.70
2018-09-30T16:13:50.382Z,52.10
2018-09-30T16:16:18.789Z,54.20
2018-09-30T16:18:47.253Z,53.50
2018-09-30T16:21:15.898Z,54.30
2018-09-30T16:23:44.264Z,54.70
2018-09-30T16:26:13.300Z,55.00
2018-09-30T16:28:41.932Z,60.00
2018-09-30T16:31:10.859Z,63.00
2018-09-30T16:33:39.490Z,64.30
2018-09-30T16:36:07.973Z,65.90
2018-09-30T16:38:36.455Z,62.10
2018-09-30T16:41:05.194Z,58.80
2018-09-30T16:43:33.823Z,58.20
2018-09-30T16:46:02.372Z,58.20
2018-09-30T16:48:31.279Z,61.10
2018-09-30T16:50:59.685Z,62.30
2018-09-30T16:53:28.747Z,60.50
2018-09-30T16:55:57.407Z,59.80
2018-09-30T16:58:25.917Z,61.40
2018-09-30T17:00:55.486Z,62.50
2018-09-30T17:03:23.880Z,62.30
2018-09-30T17:05:52.949Z,65.60
2018-09-30T17:08:21.548Z,65.80
2018-09-30T17:10:50.002Z,66.90
2018-09-30T17:13:18.523Z,68.30
2018-09-30T17:15:47.052Z,68.80
2018-09-30T17:18:15.586Z,68.10
2018-09-30T17:20:44.025Z,68.00
2018-09-30T17:23:12.694Z,68.70
2018-09-30T17:25:41.213Z,69.90
2018-09-30T17:28:09.620Z,69.90
2018-09-30T17:30:38.198Z,70.30
2018-09-30T17:33:06.600Z,71.10
2018-09-30T17:35:35.236Z,71.40
2018-09-30T17:38:04.582Z,71.80
2018-09-30T17:40:33.030Z,71.70
2018-09-30T17:43:01.408Z,72.00
2018-09-30T17:45:29.857Z,73.10
2018-09-30T17:47:58.247Z,72.60
2018-09-30T17:50:27.340Z,72.50
2018-09-30T17:52:55.801Z,72.60
2018-09-30T17:55:24.212Z,73.20
2018-09-30T17:57:52.717Z,72.90
2018-09-30T18:00:28.612Z,73.70
2018-09-30T18:02:57.287Z,73.70
2018-09-30T18:05:25.746Z,74.00
2018-09-30T18:07:54.164Z,73.50
2018-09-30T18:10:22.684Z,74.20
2018-09-30T18:12:51.087Z,73.30
2018-09-30T18:15:19.494Z,73.40
2018-09-30T18:17:47.872Z,74.40
2018-09-30T18:20:16.537Z,74.80
2018-09-30T18:22:45.156Z,75.00
2018-09-30T18:25:13.909Z,74.30
2018-09-30T18:27:45.743Z,73.90
2018-09-30T18:30:14.730Z,74.30
2018-09-30T18:32:43.191Z,74.80
2018-09-30T18:35:12.543Z,74.80
2018-09-30T18:37:41.267Z,75.10
2018-09-30T18:40:10.068Z,75.30
2018-09-30T18:42:38.619Z,75.80
2018-09-30T18:45:07.400Z,76.10
2018-09-30T18:47:36.113Z,76.00
2018-09-30T18:50:05.233Z,76.50
2018-09-30T18:52:34.108Z,74.70
2018-09-30T18:55:02.958Z,74.90
2018-09-30T18:57:31.823Z,76.40
2018-09-30T19:00:09.083Z,75.30
2018-09-30T19:02:39.963Z,75.50
2018-09-30T19:05:09.177Z,76.00
2018-09-30T19:07:38.286Z,76.20
2018-09-30T19:10:07.291Z,77.20
2018-09-30T19:12:36.118Z,76.50
2018-09-30T19:15:04.947Z,76.10
2018-09-30T19:17:33.637Z,76.10
2018-09-30T19:20:02.433Z,77.30
2018-09-30T19:22:31.212Z,77.70
2018-09-30T19:25:00.075Z,78.10
2018-09-30T19:27:28.468Z,78.30
2018-09-30T19:29:56.980Z,77.60
2018-09-30T19:32:25.372Z,76.50
2018-09-30T19:34:54.270Z,75.60
2018-09-30T19:37:22.669Z,75.00
2018-09-30T19:39:51.134Z,75.10
2018-09-30T19:42:19.588Z,76.90
2018-09-30T19:44:48.060Z,77.30
2018-09-30T19:47:16.505Z,78.20
2018-09-30T19:49:44.950Z,78.20
2018-09-30T19:52:13.480Z,79.50
2018-09-30T19:54:41.997Z,80.20
2018-09-30T19:57:10.462Z,80.20
2018-09-30T19:59:38.948Z,80.80
2018-09-30T20:02:08.069Z,80.80
2018-09-30T20:04:36.847Z,80.90
2018-09-30T20:07:05.326Z,81.60
2018-09-30T20:09:33.728Z,82.50
2018-09-30T20:12:02.288Z,83.00
2018-09-30T20:14:31.648Z,83.20
2018-09-30T20:17:00.061Z,83.00
2018-09-30T20:19:28.489Z,83.00
2018-09-30T20:21:56.985Z,83.90
2018-09-30T20:24:25.453Z,84.10
2018-09-30T20:26:53.845Z,84.20
2018-09-30T20:29:22.290Z,84.30
2018-09-30T20:31:50.832Z,84.50
2018-09-30T20:34:19.334Z,84.10
2018-09-30T20:36:47.848Z,83.10
2018-09-30T20:39:16.332Z,83.90
2018-09-30T20:41:45.483Z,84.10
2018-09-30T20:44:13.877Z,84.40
2018-09-30T20:46:42.384Z,84.20
2018-09-30T20:49:10.825Z,83.20
2018-09-30T20:51:39.252Z,83.00
2018-09-30T20:54:08.736Z,83.60
2018-09-30T20:56:37.755Z,82.40
2018-09-30T20:59:06.419Z,80.10
2018-09-30T21:01:34.827Z,80.80
2018-09-30T21:04:03.233Z,80.30
2018-09-30T21:06:34.773Z,77.70
2018-09-30T21:09:03.396Z,79.30
2018-09-30T21:11:31.769Z,78.30
2018-09-30T21:14:00.430Z,78.40
2018-09-30T21:16:30.424Z,77.80
2018-09-30T21:18:58.853Z,77.30
2018-09-30T21:21:27.252Z,75.70
2018-09-30T21:23:55.700Z,75.40
2018-09-30T21:26:24.173Z,74.90
2018-09-30T21:28:52.607Z,74.50
2018-09-30T21:31:21.147Z,74.20
2018-09-30T21:33:49.701Z,73.80
2018-09-30T21:36:18.106Z,73.40
2018-09-30T21:38:46.692Z,73.20
2018-09-30T21:41:15.074Z,73.00
2018-09-30T21:43:44.504Z,72.90
2018-09-30T21:46:13.225Z,72.90
2018-09-30T21:48:41.914Z,72.70
2018-09-30T21:51:11.616Z,72.60
2018-09-30T21:53:40.626Z,72.40
2018-09-30T21:56:12.978Z,72.20
2018-09-30T21:58:41.852Z,72.20
2018-09-30T22:01:10.531Z,72.20
2018-09-30T22:03:39.036Z,72.30
2018-09-30T22:06:07.590Z,74.20
2018-09-30T22:08:36.249Z,73.00
2018-09-30T22:11:04.764Z,72.80
2018-09-30T22:13:33.196Z,72.80
2018-09-30T22:16:08.881Z,73.00
2018-09-30T22:18:37.409Z,73.10
2018-09-30T22:26:05.562Z,72.70
2018-09-30T22:28:34.072Z,72.40
2018-09-30T22:31:03.381Z,72.40
2018-09-30T22:33:33.587Z,72.20
2018-09-30T22:36:03.015Z,72.20
2018-09-30T22:38:37.023Z,72.40
2018-09-30T22:41:05.545Z,72.30
2018-09-30T22:43:34.144Z,72.20
2018-09-30T22:46:03.007Z,72.10
2018-09-30T22:48:32.334Z,72.10
2018-09-30T22:51:00.740Z,72.20
2018-09-30T22:53:29.235Z,72.40
2018-09-30T22:55:57.800Z,72.60
2018-09-30T22:58:26.298Z,73.60
2018-09-30T23:00:54.788Z,73.40
2018-09-30T23:03:23.290Z,73.40
2018-09-30T23:05:51.657Z,74.90
2018-09-30T23:08:20.078Z,75.90
2018-09-30T23:10:48.427Z,76.70
2018-09-30T23:13:16.925Z,76.70
2018-09-30T23:15:45.583Z,76.80
2018-09-30T23:18:13.976Z,78.00
2018-09-30T23:20:42.413Z,78.00
2018-09-30T23:23:10.766Z,78.20
2018-09-30T23:25:39.542Z,78.40
2018-09-30T23:28:08.265Z,78.60
2018-09-30T23:30:36.728Z,79.00
2018-09-30T23:33:05.160Z,79.20
2018-09-30T23:35:33.523Z,79.40
2018-09-30T23:38:01.949Z,79.50
2018-09-30T23:40:30.387Z,80.10
2018-09-30T23:42:58.943Z,80.00
2018-09-30T23:45:27.385Z,80.10
2018-09-30T23:47:55.769Z,80.50
2018-09-30T23:50:24.380Z,80.20
2018-09-30T23:52:52.900Z,80.80
2018-09-30T23:55:21.362Z,81.40
2018-09-30T23:57:49.834Z,82.30
